EPSC

Szczecin-Goleniów "Solidarność" Airport

Goleniow, Poland
TAF EPSC 210530Z 2106/2206 33012KT CAVOK BECMG 2116/2118 VRB02KT
Issued Valid From Valid To
Apr-21 @ 05:30 UTC
(4 hours ago)
Apr-21 @ 06:00 UTC
(4 hours ago)
Apr-22 @ 06:00 UTC
(in 20 hours)
Apr-21 @ 06:00 to Apr-21 @ 16:00
TAF EPSC 210530Z 2106/2206 33012KT CAVOK
Wind Visibility Clouds Conditions
330° at 12 knots 10,000+ meters
  • No significant clouds
Becoming Apr-21 @ 16:00 to Apr-22 @ 06:00
BECMG 2116/2118 VRB02KT
Wind Visibility Clouds Conditions
Variable at 2 knots 10,000+ meters
  • No significant clouds
TAF EPSC 210530Z 2106/2206 33012KT CAVOK BECMG 2116/2118 VRB02KT
Issued Apr-21 @ 05:30 UTC
(4 hours ago)
Valid From Apr-21 @ 06:00 UTC
(4 hours ago)
Valid To Apr-22 @ 06:00 UTC
(in 20 hours)
Apr-21 @ 06:00 - Apr-21 @ 16:00
Wind Visibility
330° at 12 knots 10,000+ meters
Clouds
  • No significant clouds
Conditions
Becoming Apr-21 @ 16:00 - Apr-22 @ 06:00
Wind Visibility
Variable at 2 knots 10,000+ meters
Clouds
  • No significant clouds
Conditions